createdAt,value
2019-04-29T00:02:34.512Z,7.12
2019-04-29T00:07:36.978Z,6.98
2019-04-29T00:12:39.442Z,7.15
2019-04-29T00:17:51.009Z,6.89
2019-04-29T00:22:53.464Z,7.05
2019-04-29T00:27:55.931Z,6.96
2019-04-29T00:32:58.370Z,6.79
2019-04-29T00:38:03.665Z,6.84
2019-04-29T00:43:06.108Z,6.86
2019-04-29T00:48:08.573Z,6.59
2019-04-29T00:53:11.050Z,6.42
2019-04-29T00:58:13.506Z,6.56
2019-04-29T01:03:16.024Z,6.60
2019-04-29T01:08:18.467Z,6.63
2019-04-29T01:13:20.919Z,6.52
2019-04-29T01:18:23.381Z,6.33
2019-04-29T01:23:25.837Z,6.34
2019-04-29T01:28:31.334Z,6.30
2019-04-29T01:33:33.803Z,6.19
2019-04-29T01:38:36.276Z,6.15
2019-04-29T01:43:41.656Z,6.16
2019-04-29T01:48:44.116Z,6.11
2019-04-29T01:53:46.575Z,6.06
2019-04-29T01:58:49.034Z,6.01
2019-04-29T02:03:51.484Z,6.03
2019-04-29T02:08:53.931Z,5.91
2019-04-29T02:13:56.416Z,5.99
2019-04-29T02:18:58.862Z,6.04
2019-04-29T02:24:01.322Z,6.20
2019-04-29T02:29:04.673Z,6.23
2019-04-29T02:34:07.131Z,6.54
2019-04-29T02:39:15.396Z,6.66
2019-04-29T02:44:17.992Z,6.79
2019-04-29T02:49:20.449Z,6.99
2019-04-29T02:54:22.993Z,7.03
2019-04-29T02:59:37.281Z,6.96
2019-04-29T03:04:48.709Z,7.04
2019-04-29T03:09:51.159Z,7.19
2019-04-29T03:14:53.605Z,7.20
2019-04-29T03:20:14.621Z,7.08
2019-04-29T03:25:17.087Z,7.16
2019-04-29T03:30:19.625Z,7.15
2019-04-29T03:35:22.049Z,7.12
2019-04-29T03:40:24.614Z,6.85
2019-04-29T03:45:26.960Z,6.80
2019-04-29T03:50:29.450Z,6.84
2019-04-29T03:55:40.128Z,6.99
2019-04-29T04:00:35.044Z,7.24
2019-04-29T04:05:37.512Z,7.25
2019-04-29T04:10:39.968Z,7.13
2019-04-29T04:15:42.432Z,7.14
2019-04-29T04:20:44.913Z,7.46
2019-04-29T04:25:47.355Z,7.41
2019-04-29T04:30:49.830Z,7.37
2019-04-29T04:35:52.294Z,7.33
2019-04-29T04:40:54.772Z,7.41
2019-04-29T04:45:57.225Z,7.47
2019-04-29T04:50:59.689Z,7.70
2019-04-29T04:56:02.146Z,7.59
2019-04-29T05:01:04.612Z,7.54
2019-04-29T05:06:07.069Z,7.47
2019-04-29T05:11:09.532Z,7.71
2019-04-29T05:16:11.984Z,7.74
2019-04-29T05:21:14.577Z,7.83
2019-04-29T05:26:17.071Z,8.01
2019-04-29T05:31:19.539Z,8.30
2019-04-29T05:36:25.101Z,8.74
2019-04-29T05:41:30.187Z,9.06
2019-04-29T05:46:30.012Z,9.52
2019-04-29T05:51:32.470Z,9.94
2019-04-29T05:56:34.987Z,10.09
2019-04-29T06:01:37.473Z,10.51
2019-04-29T06:06:39.920Z,10.77
2019-04-29T06:11:42.381Z,10.88
2019-04-29T06:16:44.943Z,10.92
2019-04-29T06:21:47.458Z,11.26
2019-04-29T06:26:49.918Z,11.43
2019-04-29T06:31:52.374Z,11.47
2019-04-29T06:36:54.843Z,11.67
2019-04-29T06:41:57.346Z,11.71
2019-04-29T06:46:59.809Z,12.02
2019-04-29T06:52:02.288Z,12.06
2019-04-29T06:57:04.753Z,12.24
2019-04-29T07:02:09.500Z,12.06
2019-04-29T07:07:09.699Z,12.29
2019-04-29T07:12:13.814Z,12.70
2019-04-29T07:17:14.632Z,12.99
2019-04-29T07:22:20.801Z,13.06
2019-04-29T07:27:19.620Z,13.52
2019-04-29T07:32:22.086Z,14.09
2019-04-29T07:37:24.574Z,14.02
2019-04-29T07:42:32.262Z,14.60
2019-04-29T07:47:31.086Z,15.02
2019-04-29T07:52:32.062Z,14.62
2019-04-29T07:57:34.585Z,14.70
2019-04-29T08:02:37.043Z,15.71
2019-04-29T08:07:39.512Z,16.72
2019-04-29T08:12:41.982Z,18.10
2019-04-29T08:17:44.498Z,19.57
2019-04-29T08:22:46.893Z,21.04
2019-04-29T08:27:49.347Z,21.91
2019-04-29T08:32:51.800Z,23.06
2019-04-29T08:37:54.287Z,24.94
2019-04-29T08:42:56.745Z,25.87
2019-04-29T08:47:59.274Z,26.09
2019-04-29T08:53:01.759Z,26.49
2019-04-29T08:58:06.941Z,26.94
2019-04-29T09:03:06.683Z,27.76
2019-04-29T09:08:09.180Z,27.29
2019-04-29T09:13:11.597Z,27.13
2019-04-29T09:18:14.086Z,27.14
2019-04-29T09:23:16.556Z,26.68
2019-04-29T09:28:26.995Z,26.76
2019-04-29T09:33:21.635Z,27.83
2019-04-29T09:38:24.109Z,29.23
2019-04-29T09:43:41.924Z,27.06
2019-04-29T09:48:44.392Z,26.20
2019-04-29T09:53:46.867Z,24.49
2019-04-29T09:58:49.332Z,24.52
2019-04-29T10:04:00.857Z,23.34
2019-04-29T10:09:03.333Z,22.92
2019-04-29T10:14:05.811Z,22.00
2019-04-29T10:19:08.269Z,21.76
2019-04-29T10:24:10.743Z,20.55
2019-04-29T10:29:13.772Z,21.06
2019-04-29T10:34:15.697Z,21.35
2019-04-29T10:39:24.392Z,21.70
2019-04-29T10:44:26.805Z,21.09
2019-04-29T10:49:29.334Z,22.16
2019-04-29T10:54:31.792Z,23.69
2019-04-29T10:59:35.905Z,23.86
2019-04-29T11:04:38.105Z,24.72
2019-04-29T11:09:39.216Z,25.13
2019-04-29T11:14:41.675Z,27.27
2019-04-29T11:19:44.149Z,25.71
2019-04-29T11:25:04.958Z,26.10
2019-04-29T11:30:07.420Z,26.57
2019-04-29T11:35:09.884Z,25.65
2019-04-29T11:40:12.367Z,23.99
2019-04-29T11:45:14.847Z,23.04
2019-04-29T11:50:20.076Z,22.98
2019-04-29T11:55:22.564Z,23.52
2019-04-29T12:00:34.255Z,23.76
2019-04-29T12:05:40.260Z,22.32
2019-04-29T12:10:46.872Z,22.19
2019-04-29T12:15:50.929Z,22.25
2019-04-29T12:20:53.418Z,22.06
2019-04-29T12:25:58.655Z,21.16
2019-04-29T12:30:58.356Z,21.73
2019-04-29T12:36:11.001Z,22.07
2019-04-29T12:41:20.957Z,21.91
2019-04-29T12:46:21.700Z,21.92
2019-04-29T12:51:24.199Z,21.09
2019-04-29T12:56:32.784Z,21.57
2019-04-29T13:01:50.809Z,21.26
2019-04-29T13:06:39.421Z,21.20
2019-04-29T13:11:48.173Z,21.82
2019-04-29T13:16:45.680Z,21.51
2019-04-29T13:21:48.152Z,21.67
2019-04-29T13:26:50.612Z,20.96
2019-04-29T13:31:53.113Z,20.82
2019-04-29T13:37:06.529Z,20.87
2019-04-29T13:42:02.600Z,21.07
2019-04-29T13:47:00.527Z,20.39
2019-04-29T13:52:02.991Z,19.79
2019-04-29T13:57:08.912Z,20.06
2019-04-29T14:02:22.155Z,19.94
2019-04-29T14:07:22.468Z,19.85
2019-04-29T14:12:47.936Z,19.75
2019-04-29T14:17:31.795Z,19.41
2019-04-29T14:22:29.983Z,18.98
2019-04-29T14:27:32.443Z,18.96
2019-04-29T14:32:38.155Z,19.40
2019-04-29T14:37:37.416Z,19.18
2019-04-29T14:42:57.601Z,18.66
2019-04-29T14:47:51.364Z,18.28
2019-04-29T14:52:53.838Z,17.51
2019-04-29T14:57:56.302Z,17.37
2019-04-29T15:03:00.857Z,16.89
2019-04-29T15:08:01.257Z,16.27
2019-04-29T15:13:21.458Z,16.17
2019-04-29T15:18:46.131Z,16.24
2019-04-29T15:23:33.078Z,15.72
2019-04-29T15:28:35.441Z,15.66
2019-04-29T15:33:37.910Z,15.66
2019-04-29T15:38:40.380Z,15.65
2019-04-29T15:43:47.769Z,15.30
2019-04-29T15:48:45.353Z,15.03
2019-04-29T15:53:47.818Z,15.15
2019-04-29T15:58:50.525Z,15.07
2019-04-29T16:03:54.605Z,14.72
2019-04-29T16:08:58.930Z,14.27
2019-04-29T16:14:08.686Z,14.17
2019-04-29T16:19:07.133Z,14.15
2019-04-29T16:24:24.358Z,13.98
2019-04-29T16:29:12.343Z,14.02
2019-04-29T16:34:07.739Z,13.89
2019-04-29T16:39:10.216Z,13.94
2019-04-29T16:44:34.106Z,13.90
2019-04-29T16:49:15.125Z,13.94
2019-04-29T16:54:20.598Z,14.04
2019-04-29T16:59:20.149Z,14.06
2019-04-29T17:04:22.610Z,14.09
2019-04-29T17:09:40.171Z,14.06
2019-04-29T17:15:03.076Z,14.19
2019-04-29T17:19:45.131Z,14.01
2019-04-29T17:24:47.739Z,13.81
2019-04-29T17:30:08.331Z,13.64
2019-04-29T17:35:11.006Z,13.67
2019-04-29T17:40:13.270Z,13.67
2019-04-29T17:45:27.018Z,13.53
2019-04-29T17:50:31.359Z,13.42
2019-04-29T17:55:45.463Z,13.39
2019-04-29T18:00:56.290Z,13.39
2019-04-29T18:05:57.102Z,13.37
2019-04-29T18:10:55.886Z,13.25
2019-04-29T18:16:03.355Z,13.27
2019-04-29T18:21:06.834Z,13.26
2019-04-29T18:26:09.189Z,13.12
2019-04-29T18:31:11.677Z,13.12
2019-04-29T18:36:21.832Z,13.03
2019-04-29T18:41:24.825Z,12.93
2019-04-29T18:46:19.101Z,12.94
2019-04-29T18:51:25.681Z,12.87
2019-04-29T18:56:25.973Z,12.96
2019-04-29T19:01:28.850Z,12.95
2019-04-29T19:06:29.069Z,12.95
2019-04-29T19:11:32.765Z,12.86
2019-04-29T19:16:35.888Z,12.80
2019-04-29T19:21:36.468Z,12.81
2019-04-29T19:26:38.937Z,12.81
2019-04-29T19:31:46.633Z,12.71
2019-04-29T19:36:45.173Z,12.63
2019-04-29T19:41:50.407Z,12.55
2019-04-29T19:46:48.823Z,12.55
2019-04-29T19:51:51.312Z,12.56
2019-04-29T19:57:02.918Z,12.49
2019-04-29T20:02:04.618Z,12.43
2019-04-29T20:07:05.783Z,12.42
2019-04-29T20:12:11.405Z,12.38
2019-04-29T20:17:12.679Z,12.42
2019-04-29T20:22:09.831Z,12.32
2019-04-29T20:27:11.908Z,12.30
2019-04-29T20:32:16.582Z,12.31
2019-04-29T20:37:19.784Z,12.32
2019-04-29T20:42:19.576Z,12.39
2019-04-29T20:47:23.581Z,12.45
2019-04-29T20:52:27.161Z,12.46
2019-04-29T20:57:29.656Z,12.43
2019-04-29T21:02:35.330Z,12.44
2019-04-29T21:07:34.568Z,12.41
2019-04-29T21:12:39.979Z,12.40
2019-04-29T21:17:42.438Z,12.39
2019-04-29T21:22:45.564Z,12.45
2019-04-29T21:27:48.547Z,12.26
2019-04-29T21:32:49.893Z,12.34
2019-04-29T21:38:10.508Z,12.40
2019-04-29T21:43:13.955Z,12.47
2019-04-29T21:48:15.459Z,12.45
2019-04-29T21:53:17.925Z,12.54
2019-04-29T21:58:20.410Z,12.44
2019-04-29T22:03:26.521Z,12.36
2019-04-29T22:08:29.806Z,12.51
2019-04-29T22:13:30.689Z,12.39
2019-04-29T22:18:30.324Z,12.42
2019-04-29T22:23:32.782Z,12.48
2019-04-29T22:28:35.306Z,12.46
2019-04-29T22:33:38.669Z,12.47
2019-04-29T22:38:43.671Z,12.49
2019-04-29T22:43:45.832Z,12.40
2019-04-29T22:48:48.742Z,12.44
2019-04-29T22:53:50.597Z,12.37
2019-04-29T22:58:53.080Z,12.39
2019-04-29T23:03:55.576Z,12.39
2019-04-29T23:08:58.010Z,12.09
2019-04-29T23:14:01.675Z,11.95
2019-04-29T23:19:05.004Z,12.12
2019-04-29T23:24:07.091Z,12.30
2019-04-29T23:29:07.877Z,12.34
2019-04-29T23:34:10.342Z,12.38
2019-04-29T23:39:12.803Z,12.50
2019-04-29T23:44:15.267Z,12.29
2019-04-29T23:49:17.724Z,12.34
2019-04-29T23:54:20.258Z,12.41
2019-04-29T23:59:25.541Z,12.43
